sensor_id;sensor_type;location;lat;lon;timestamp;P1;durP1;ratioP1;P2;durP2;ratioP2
62863;SDS011;48954;59.950;11.014;2024-01-10T00:02:00;175.70;;;55.50;;
62863;SDS011;48954;59.950;11.014;2024-01-10T00:04:26;184.10;;;56.10;;
62863;SDS011;48954;59.950;11.014;2024-01-10T00:06:52;188.80;;;62.00;;
62863;SDS011;48954;59.950;11.014;2024-01-10T00:09:18;196.70;;;63.90;;
62863;SDS011;48954;59.950;11.014;2024-01-10T00:11:44;191.30;;;62.80;;
62863;SDS011;48954;59.950;11.014;2024-01-10T00:14:10;204.60;;;64.10;;
62863;SDS011;48954;59.950;11.014;2024-01-10T00:16:36;220.70;;;67.40;;
62863;SDS011;48954;59.950;11.014;2024-01-10T00:19:02;213.00;;;68.50;;
62863;SDS011;48954;59.950;11.014;2024-01-10T00:21:28;212.60;;;69.20;;
62863;SDS011;48954;59.950;11.014;2024-01-10T00:23:54;184.30;;;60.10;;
62863;SDS011;48954;59.950;11.014;2024-01-10T00:26:20;168.30;;;59.80;;
62863;SDS011;48954;59.950;11.014;2024-01-10T00:28:46;171.70;;;59.50;;
62863;SDS011;48954;59.950;11.014;2024-01-10T00:31:13;182.30;;;62.00;;
62863;SDS011;48954;59.950;11.014;2024-01-10T00:33:39;176.10;;;58.00;;
62863;SDS011;48954;59.950;11.014;2024-01-10T00:36:05;181.80;;;59.20;;
62863;SDS011;48954;59.950;11.014;2024-01-10T00:38:32;178.30;;;56.80;;
62863;SDS011;48954;59.950;11.014;2024-01-10T00:40:59;193.10;;;60.70;;
62863;SDS011;48954;59.950;11.014;2024-01-10T00:43:25;180.90;;;58.90;;
62863;SDS011;48954;59.950;11.014;2024-01-10T00:45:57;187.10;;;59.30;;
62863;SDS011;48954;59.950;11.014;2024-01-10T00:48:23;170.70;;;56.10;;
62863;SDS011;48954;59.950;11.014;2024-01-10T00:50:49;178.20;;;57.90;;
62863;SDS011;48954;59.950;11.014;2024-01-10T00:53:15;169.40;;;56.00;;
62863;SDS011;48954;59.950;11.014;2024-01-10T00:55:41;177.30;;;54.70;;
62863;SDS011;48954;59.950;11.014;2024-01-10T00:58:07;166.00;;;55.80;;
62863;SDS011;48954;59.950;11.014;2024-01-10T01:00:33;155.70;;;52.40;;
62863;SDS011;48954;59.950;11.014;2024-01-10T01:02:59;142.90;;;52.10;;
62863;SDS011;48954;59.950;11.014;2024-01-10T01:05:26;149.00;;;49.30;;
62863;SDS011;48954;59.950;11.014;2024-01-10T01:07:52;156.60;;;53.80;;
62863;SDS011;48954;59.950;11.014;2024-01-10T01:10:18;158.30;;;50.20;;
62863;SDS011;48954;59.950;11.014;2024-01-10T01:12:44;171.60;;;54.80;;
62863;SDS011;48954;59.950;11.014;2024-01-10T01:15:10;160.50;;;51.00;;
62863;SDS011;48954;59.950;11.014;2024-01-10T01:17:36;162.20;;;50.70;;
62863;SDS011;48954;59.950;11.014;2024-01-10T01:20:02;145.60;;;46.70;;
62863;SDS011;48954;59.950;11.014;2024-01-10T01:22:28;149.90;;;47.00;;
62863;SDS011;48954;59.950;11.014;2024-01-10T01:24:54;137.00;;;44.40;;
62863;SDS011;48954;59.950;11.014;2024-01-10T01:27:20;130.90;;;43.20;;
62863;SDS011;48954;59.950;11.014;2024-01-10T01:29:46;133.70;;;43.60;;
62863;SDS011;48954;59.950;11.014;2024-01-10T01:32:12;133.70;;;44.60;;
62863;SDS011;48954;59.950;11.014;2024-01-10T01:34:38;140.20;;;44.30;;
62863;SDS011;48954;59.950;11.014;2024-01-10T01:37:04;127.90;;;43.60;;
62863;SDS011;48954;59.950;11.014;2024-01-10T01:39:29;122.70;;;41.50;;
62863;SDS011;48954;59.950;11.014;2024-01-10T01:41:56;110.00;;;41.50;;
62863;SDS011;48954;59.950;11.014;2024-01-10T01:44:22;112.10;;;38.30;;
62863;SDS011;48954;59.950;11.014;2024-01-10T01:46:48;95.40;;;34.60;;
62863;SDS011;48954;59.950;11.014;2024-01-10T01:49:14;79.50;;;31.90;;
62863;SDS011;48954;59.950;11.014;2024-01-10T01:51:40;84.00;;;30.60;;
62863;SDS011;48954;59.950;11.014;2024-01-10T01:54:07;96.40;;;31.50;;
62863;SDS011;48954;59.950;11.014;2024-01-10T01:56:33;89.20;;;30.60;;
62863;SDS011;48954;59.950;11.014;2024-01-10T01:59:02;83.10;;;32.80;;
62863;SDS011;48954;59.950;11.014;2024-01-10T02:01:32;84.10;;;31.50;;
62863;SDS011;48954;59.950;11.014;2024-01-10T02:03:59;103.10;;;35.80;;
62863;SDS011;48954;59.950;11.014;2024-01-10T02:06:27;87.80;;;32.70;;
62863;SDS011;48954;59.950;11.014;2024-01-10T02:08:53;98.10;;;36.70;;
62863;SDS011;48954;59.950;11.014;2024-01-10T02:11:24;87.00;;;35.60;;
62863;SDS011;48954;59.950;11.014;2024-01-10T02:13:51;94.70;;;35.10;;
62863;SDS011;48954;59.950;11.014;2024-01-10T02:16:18;102.60;;;38.40;;
62863;SDS011;48954;59.950;11.014;2024-01-10T02:18:43;125.50;;;44.30;;
62863;SDS011;48954;59.950;11.014;2024-01-10T02:21:10;108.30;;;41.00;;
62863;SDS011;48954;59.950;11.014;2024-01-10T02:23:35;100.40;;;35.70;;
62863;SDS011;48954;59.950;11.014;2024-01-10T02:26:01;100.70;;;35.90;;
62863;SDS011;48954;59.950;11.014;2024-01-10T02:28:30;108.60;;;36.40;;
62863;SDS011;48954;59.950;11.014;2024-01-10T02:30:56;85.00;;;31.30;;
62863;SDS011;48954;59.950;11.014;2024-01-10T02:33:23;80.30;;;30.20;;
62863;SDS011;48954;59.950;11.014;2024-01-10T02:35:48;58.80;;;19.90;;
62863;SDS011;48954;59.950;11.014;2024-01-10T02:38:14;57.70;;;22.00;;
62863;SDS011;48954;59.950;11.014;2024-01-10T02:40:40;67.10;;;21.90;;
62863;SDS011;48954;59.950;11.014;2024-01-10T02:43:06;58.70;;;23.10;;
62863;SDS011;48954;59.950;11.014;2024-01-10T02:45:32;57.80;;;22.10;;
62863;SDS011;48954;59.950;11.014;2024-01-10T02:47:58;45.30;;;17.40;;
62863;SDS011;48954;59.950;11.014;2024-01-10T02:50:23;43.90;;;17.20;;
62863;SDS011;48954;59.950;11.014;2024-01-10T02:52:50;48.40;;;18.60;;
62863;SDS011;48954;59.950;11.014;2024-01-10T02:55:16;48.00;;;19.30;;
62863;SDS011;48954;59.950;11.014;2024-01-10T02:57:41;47.10;;;19.10;;
62863;SDS011;48954;59.950;11.014;2024-01-10T03:00:07;53.10;;;20.00;;
62863;SDS011;48954;59.950;11.014;2024-01-10T03:02:34;45.60;;;18.50;;
62863;SDS011;48954;59.950;11.014;2024-01-10T03:05:00;41.70;;;18.60;;
62863;SDS011;48954;59.950;11.014;2024-01-10T03:07:25;42.50;;;16.60;;
62863;SDS011;48954;59.950;11.014;2024-01-10T03:09:51;41.60;;;17.00;;
62863;SDS011;48954;59.950;11.014;2024-01-10T03:12:17;41.80;;;16.20;;
62863;SDS011;48954;59.950;11.014;2024-01-10T03:14:43;42.30;;;18.20;;
62863;SDS011;48954;59.950;11.014;2024-01-10T03:17:09;44.40;;;16.60;;
62863;SDS011;48954;59.950;11.014;2024-01-10T03:19:35;44.90;;;16.90;;
62863;SDS011;48954;59.950;11.014;2024-01-10T03:22:01;30.50;;;12.10;;
62863;SDS011;48954;59.950;11.014;2024-01-10T03:24:27;32.90;;;13.80;;
62863;SDS011;48954;59.950;11.014;2024-01-10T03:26:52;33.10;;;12.70;;
62863;SDS011;48954;59.950;11.014;2024-01-10T03:29:18;27.60;;;12.50;;
62863;SDS011;48954;59.950;11.014;2024-01-10T03:31:44;27.70;;;10.40;;
62863;SDS011;48954;59.950;11.014;2024-01-10T03:34:11;21.00;;;9.20;;
62863;SDS011;48954;59.950;11.014;2024-01-10T03:36:37;27.80;;;9.80;;
62863;SDS011;48954;59.950;11.014;2024-01-10T03:39:03;18.80;;;7.60;;
62863;SDS011;48954;59.950;11.014;2024-01-10T03:41:30;25.50;;;9.00;;
62863;SDS011;48954;59.950;11.014;2024-01-10T03:43:56;20.90;;;7.40;;
62863;SDS011;48954;59.950;11.014;2024-01-10T03:46:22;22.90;;;7.80;;
62863;SDS011;48954;59.950;11.014;2024-01-10T03:48:48;24.50;;;8.10;;
62863;SDS011;48954;59.950;11.014;2024-01-10T03:51:18;18.30;;;6.90;;
62863;SDS011;48954;59.950;11.014;2024-01-10T03:53:44;16.50;;;6.30;;
62863;SDS011;48954;59.950;11.014;2024-01-10T03:56:11;18.10;;;5.80;;
62863;SDS011;48954;59.950;11.014;2024-01-10T03:58:39;21.60;;;6.50;;
62863;SDS011;48954;59.950;11.014;2024-01-10T04:01:05;17.70;;;6.30;;
62863;SDS011;48954;59.950;11.014;2024-01-10T04:03:32;13.90;;;5.00;;
62863;SDS011;48954;59.950;11.014;2024-01-10T04:05:58;18.80;;;5.90;;
62863;SDS011;48954;59.950;11.014;2024-01-10T04:08:24;13.20;;;4.60;;
62863;SDS011;48954;59.950;11.014;2024-01-10T04:10:50;17.30;;;5.40;;
62863;SDS011;48954;59.950;11.014;2024-01-10T04:13:16;14.00;;;5.40;;
62863;SDS011;48954;59.950;11.014;2024-01-10T04:15:42;17.40;;;6.10;;
62863;SDS011;48954;59.950;11.014;2024-01-10T04:18:08;14.30;;;5.10;;
62863;SDS011;48954;59.950;11.014;2024-01-10T04:20:34;10.70;;;4.00;;
62863;SDS011;48954;59.950;11.014;2024-01-10T04:23:00;12.70;;;4.30;;
62863;SDS011;48954;59.950;11.014;2024-01-10T04:25:26;11.50;;;3.70;;
62863;SDS011;48954;59.950;11.014;2024-01-10T04:27:52;11.20;;;4.30;;
62863;SDS011;48954;59.950;11.014;2024-01-10T04:30:18;13.60;;;5.10;;
62863;SDS011;48954;59.950;11.014;2024-01-10T04:32:44;13.90;;;4.80;;
62863;SDS011;48954;59.950;11.014;2024-01-10T04:35:10;9.40;;;3.70;;
62863;SDS011;48954;59.950;11.014;2024-01-10T04:37:36;10.00;;;3.20;;
62863;SDS011;48954;59.950;11.014;2024-01-10T04:40:02;7.70;;;3.10;;
62863;SDS011;48954;59.950;11.014;2024-01-10T04:42:28;5.60;;;2.40;;
62863;SDS011;48954;59.950;11.014;2024-01-10T04:44:54;7.40;;;2.80;;
62863;SDS011;48954;59.950;11.014;2024-01-10T04:47:20;8.30;;;2.90;;
62863;SDS011;48954;59.950;11.014;2024-01-10T04:49:45;5.30;;;2.70;;
62863;SDS011;48954;59.950;11.014;2024-01-10T04:52:12;7.20;;;3.10;;
62863;SDS011;48954;59.950;11.014;2024-01-10T04:54:37;9.60;;;3.50;;
62863;SDS011;48954;59.950;11.014;2024-01-10T04:57:03;8.70;;;3.00;;
62863;SDS011;48954;59.950;11.014;2024-01-10T04:59:29;8.40;;;3.20;;
62863;SDS011;48954;59.950;11.014;2024-01-10T05:01:55;6.40;;;2.70;;
62863;SDS011;48954;59.950;11.014;2024-01-10T05:04:22;5.80;;;2.50;;
62863;SDS011;48954;59.950;11.014;2024-01-10T05:06:47;5.00;;;2.20;;
62863;SDS011;48954;59.950;11.014;2024-01-10T05:09:14;7.50;;;2.90;;
62863;SDS011;48954;59.950;11.014;2024-01-10T05:11:40;7.90;;;3.20;;
62863;SDS011;48954;59.950;11.014;2024-01-10T05:14:06;9.00;;;2.80;;
62863;SDS011;48954;59.950;11.014;2024-01-10T05:16:31;6.30;;;2.80;;
62863;SDS011;48954;59.950;11.014;2024-01-10T05:19:00;5.40;;;2.60;;
62863;SDS011;48954;59.950;11.014;2024-01-10T05:21:27;6.30;;;2.50;;
62863;SDS011;48954;59.950;11.014;2024-01-10T05:23:55;11.20;;;3.80;;
62863;SDS011;48954;59.950;11.014;2024-01-10T05:26:21;6.90;;;2.40;;
62863;SDS011;48954;59.950;11.014;2024-01-10T05:28:47;10.00;;;3.10;;
62863;SDS011;48954;59.950;11.014;2024-01-10T05:31:13;9.70;;;3.30;;
62863;SDS011;48954;59.950;11.014;2024-01-10T05:33:39;10.40;;;3.10;;
62863;SDS011;48954;59.950;11.014;2024-01-10T05:36:05;8.40;;;3.80;;
62863;SDS011;48954;59.950;11.014;2024-01-10T05:38:31;13.40;;;3.90;;
62863;SDS011;48954;59.950;11.014;2024-01-10T05:40:57;11.50;;;5.30;;
62863;SDS011;48954;59.950;11.014;2024-01-10T05:43:23;22.30;;;8.50;;
62863;SDS011;48954;59.950;11.014;2024-01-10T05:45:48;20.40;;;8.50;;
62863;SDS011;48954;59.950;11.014;2024-01-10T05:48:14;19.90;;;8.50;;
62863;SDS011;48954;59.950;11.014;2024-01-10T05:50:40;33.70;;;11.80;;
62863;SDS011;48954;59.950;11.014;2024-01-10T05:53:07;37.30;;;12.30;;
62863;SDS011;48954;59.950;11.014;2024-01-10T05:55:33;33.70;;;11.40;;
62863;SDS011;48954;59.950;11.014;2024-01-10T05:57:59;30.00;;;11.90;;
62863;SDS011;48954;59.950;11.014;2024-01-10T06:00:25;27.40;;;9.90;;
62863;SDS011;48954;59.950;11.014;2024-01-10T06:02:51;23.90;;;8.80;;
62863;SDS011;48954;59.950;11.014;2024-01-10T06:05:17;34.00;;;14.00;;
62863;SDS011;48954;59.950;11.014;2024-01-10T06:07:43;26.30;;;11.70;;
62863;SDS011;48954;59.950;11.014;2024-01-10T06:10:09;29.60;;;11.80;;
62863;SDS011;48954;59.950;11.014;2024-01-10T06:12:38;25.40;;;10.10;;
62863;SDS011;48954;59.950;11.014;2024-01-10T06:15:05;32.10;;;11.80;;
62863;SDS011;48954;59.950;11.014;2024-01-10T06:17:31;23.00;;;10.10;;
62863;SDS011;48954;59.950;11.014;2024-01-10T06:19:57;31.80;;;11.20;;
62863;SDS011;48954;59.950;11.014;2024-01-10T06:22:24;34.80;;;12.80;;
62863;SDS011;48954;59.950;11.014;2024-01-10T06:24:50;44.80;;;15.30;;
62863;SDS011;48954;59.950;11.014;2024-01-10T06:27:16;26.20;;;10.90;;
62863;SDS011;48954;59.950;11.014;2024-01-10T06:29:42;26.50;;;9.40;;
62863;SDS011;48954;59.950;11.014;2024-01-10T06:32:08;14.30;;;6.60;;
62863;SDS011;48954;59.950;11.014;2024-01-10T06:34:36;20.00;;;6.10;;
62863;SDS011;48954;59.950;11.014;2024-01-10T06:37:02;16.10;;;6.90;;
62863;SDS011;48954;59.950;11.014;2024-01-10T06:39:29;25.60;;;8.30;;
62863;SDS011;48954;59.950;11.014;2024-01-10T06:41:55;35.30;;;11.80;;
62863;SDS011;48954;59.950;11.014;2024-01-10T06:44:21;41.90;;;11.50;;
62863;SDS011;48954;59.950;11.014;2024-01-10T06:46:47;34.30;;;11.30;;
62863;SDS011;48954;59.950;11.014;2024-01-10T06:49:13;33.90;;;10.60;;
62863;SDS011;48954;59.950;11.014;2024-01-10T06:51:39;37.50;;;12.60;;
62863;SDS011;48954;59.950;11.014;2024-01-10T06:54:05;33.90;;;11.00;;
62863;SDS011;48954;59.950;11.014;2024-01-10T06:56:31;29.10;;;9.70;;
62863;SDS011;48954;59.950;11.014;2024-01-10T06:58:58;23.20;;;8.00;;
62863;SDS011;48954;59.950;11.014;2024-01-10T07:01:24;29.40;;;11.10;;
62863;SDS011;48954;59.950;11.014;2024-01-10T07:03:53;26.00;;;10.30;;
62863;SDS011;48954;59.950;11.014;2024-01-10T07:06:21;28.10;;;9.10;;
62863;SDS011;48954;59.950;11.014;2024-01-10T07:08:48;34.30;;;12.70;;
62863;SDS011;48954;59.950;11.014;2024-01-10T07:11:17;31.80;;;11.50;;
62863;SDS011;48954;59.950;11.014;2024-01-10T07:13:44;29.60;;;12.90;;
62863;SDS011;48954;59.950;11.014;2024-01-10T07:16:11;42.20;;;15.20;;
62863;SDS011;48954;59.950;11.014;2024-01-10T07:18:36;45.50;;;19.30;;
62863;SDS011;48954;59.950;11.014;2024-01-10T07:21:03;41.90;;;18.00;;
62863;SDS011;48954;59.950;11.014;2024-01-10T07:23:29;34.10;;;11.40;;
62863;SDS011;48954;59.950;11.014;2024-01-10T07:25:55;27.00;;;9.60;;
62863;SDS011;48954;59.950;11.014;2024-01-10T07:28:21;31.90;;;12.50;;
62863;SDS011;48954;59.950;11.014;2024-01-10T07:30:47;48.00;;;16.40;;
62863;SDS011;48954;59.950;11.014;2024-01-10T07:33:13;81.10;;;30.60;;
62863;SDS011;48954;59.950;11.014;2024-01-10T07:35:39;71.30;;;25.30;;
62863;SDS011;48954;59.950;11.014;2024-01-10T07:38:05;74.40;;;29.20;;
62863;SDS011;48954;59.950;11.014;2024-01-10T07:40:31;52.60;;;17.30;;
62863;SDS011;48954;59.950;11.014;2024-01-10T07:42:57;32.60;;;10.20;;
62863;SDS011;48954;59.950;11.014;2024-01-10T07:45:23;27.70;;;10.80;;
62863;SDS011;48954;59.950;11.014;2024-01-10T07:47:49;22.30;;;9.90;;
62863;SDS011;48954;59.950;11.014;2024-01-10T07:50:14;39.90;;;13.60;;
62863;SDS011;48954;59.950;11.014;2024-01-10T07:52:42;47.10;;;16.80;;
62863;SDS011;48954;59.950;11.014;2024-01-10T07:55:09;53.20;;;19.00;;
62863;SDS011;48954;59.950;11.014;2024-01-10T07:57:35;33.40;;;13.00;;
62863;SDS011;48954;59.950;11.014;2024-01-10T08:00:01;32.00;;;12.20;;
62863;SDS011;48954;59.950;11.014;2024-01-10T08:02:29;34.20;;;12.70;;
62863;SDS011;48954;59.950;11.014;2024-01-10T08:04:55;37.30;;;13.70;;
62863;SDS011;48954;59.950;11.014;2024-01-10T08:07:20;36.50;;;13.10;;
62863;SDS011;48954;59.950;11.014;2024-01-10T08:09:46;38.10;;;12.80;;
62863;SDS011;48954;59.950;11.014;2024-01-10T08:12:12;39.00;;;14.40;;
62863;SDS011;48954;59.950;11.014;2024-01-10T08:14:38;41.20;;;13.30;;
62863;SDS011;48954;59.950;11.014;2024-01-10T08:17:05;44.00;;;16.20;;
62863;SDS011;48954;59.950;11.014;2024-01-10T08:19:31;50.30;;;17.70;;
62863;SDS011;48954;59.950;11.014;2024-01-10T08:21:57;48.80;;;16.70;;
62863;SDS011;48954;59.950;11.014;2024-01-10T08:24:22;56.40;;;18.30;;
62863;SDS011;48954;59.950;11.014;2024-01-10T08:26:48;64.80;;;21.20;;
62863;SDS011;48954;59.950;11.014;2024-01-10T08:29:14;66.30;;;20.60;;
62863;SDS011;48954;59.950;11.014;2024-01-10T08:31:40;61.50;;;20.90;;
62863;SDS011;48954;59.950;11.014;2024-01-10T08:34:06;68.40;;;23.70;;
62863;SDS011;48954;59.950;11.014;2024-01-10T08:36:32;75.30;;;24.30;;
62863;SDS011;48954;59.950;11.014;2024-01-10T08:38:58;67.40;;;22.40;;
62863;SDS011;48954;59.950;11.014;2024-01-10T08:41:24;60.40;;;20.60;;
62863;SDS011;48954;59.950;11.014;2024-01-10T08:43:49;97.60;;;29.60;;
62863;SDS011;48954;59.950;11.014;2024-01-10T08:46:15;103.10;;;33.10;;
62863;SDS011;48954;59.950;11.014;2024-01-10T08:48:41;103.40;;;34.90;;
62863;SDS011;48954;59.950;11.014;2024-01-10T08:51:08;100.40;;;32.00;;
62863;SDS011;48954;59.950;11.014;2024-01-10T08:53:34;98.20;;;30.00;;
62863;SDS011;48954;59.950;11.014;2024-01-10T08:56:00;85.40;;;26.90;;
62863;SDS011;48954;59.950;11.014;2024-01-10T08:58:26;86.90;;;26.30;;
62863;SDS011;48954;59.950;11.014;2024-01-10T09:00:51;81.30;;;27.20;;
62863;SDS011;48954;59.950;11.014;2024-01-10T09:03:17;85.90;;;26.60;;
62863;SDS011;48954;59.950;11.014;2024-01-10T09:05:43;74.70;;;25.60;;
62863;SDS011;48954;59.950;11.014;2024-01-10T09:08:09;78.10;;;26.20;;
62863;SDS011;48954;59.950;11.014;2024-01-10T09:10:35;74.70;;;25.00;;
62863;SDS011;48954;59.950;11.014;2024-01-10T09:13:01;68.40;;;24.00;;
62863;SDS011;48954;59.950;11.014;2024-01-10T09:15:28;73.60;;;23.80;;
62863;SDS011;48954;59.950;11.014;2024-01-10T09:17:53;65.90;;;23.10;;
62863;SDS011;48954;59.950;11.014;2024-01-10T09:20:19;79.10;;;25.90;;
62863;SDS011;48954;59.950;11.014;2024-01-10T09:22:45;71.40;;;26.40;;
62863;SDS011;48954;59.950;11.014;2024-01-10T09:25:11;74.00;;;25.50;;
62863;SDS011;48954;59.950;11.014;2024-01-10T09:27:38;72.10;;;27.80;;
62863;SDS011;48954;59.950;11.014;2024-01-10T09:30:04;104.10;;;32.90;;
62863;SDS011;48954;59.950;11.014;2024-01-10T09:32:31;108.10;;;33.80;;
62863;SDS011;48954;59.950;11.014;2024-01-10T09:34:56;101.80;;;32.90;;
62863;SDS011;48954;59.950;11.014;2024-01-10T09:37:22;102.90;;;33.60;;
62863;SDS011;48954;59.950;11.014;2024-01-10T09:39:48;104.50;;;33.70;;
62863;SDS011;48954;59.950;11.014;2024-01-10T09:42:14;109.70;;;36.00;;
62863;SDS011;48954;59.950;11.014;2024-01-10T09:44:40;66.40;;;25.40;;
62863;SDS011;48954;59.950;11.014;2024-01-10T09:47:07;92.40;;;31.40;;
62863;SDS011;48954;59.950;11.014;2024-01-10T09:49:34;87.50;;;31.20;;
62863;SDS011;48954;59.950;11.014;2024-01-10T09:52:02;102.00;;;32.30;;
62863;SDS011;48954;59.950;11.014;2024-01-10T09:54:30;85.40;;;29.80;;
62863;SDS011;48954;59.950;11.014;2024-01-10T09:56:59;87.50;;;30.60;;
62863;SDS011;48954;59.950;11.014;2024-01-10T09:59:26;84.20;;;31.40;;
62863;SDS011;48954;59.950;11.014;2024-01-10T10:01:51;86.20;;;30.40;;
62863;SDS011;48954;59.950;11.014;2024-01-10T10:04:17;75.00;;;29.10;;
62863;SDS011;48954;59.950;11.014;2024-01-10T10:06:45;81.20;;;26.70;;
62863;SDS011;48954;59.950;11.014;2024-01-10T10:09:11;69.80;;;26.80;;
62863;SDS011;48954;59.950;11.014;2024-01-10T10:11:38;83.40;;;29.80;;
62863;SDS011;48954;59.950;11.014;2024-01-10T10:14:13;72.80;;;29.40;;
62863;SDS011;48954;59.950;11.014;2024-01-10T10:16:40;78.50;;;29.90;;
62863;SDS011;48954;59.950;11.014;2024-01-10T10:19:06;71.90;;;29.00;;
62863;SDS011;48954;59.950;11.014;2024-01-10T10:21:32;59.20;;;27.20;;
62863;SDS011;48954;59.950;11.014;2024-01-10T10:23:58;60.80;;;25.40;;
62863;SDS011;48954;59.950;11.014;2024-01-10T10:26:26;45.50;;;19.90;;
62863;SDS011;48954;59.950;11.014;2024-01-10T10:28:52;53.60;;;22.10;;
62863;SDS011;48954;59.950;11.014;2024-01-10T10:31:18;48.90;;;20.80;;
62863;SDS011;48954;59.950;11.014;2024-01-10T10:33:45;42.00;;;19.70;;
62863;SDS011;48954;59.950;11.014;2024-01-10T10:36:14;48.60;;;19.10;;
62863;SDS011;48954;59.950;11.014;2024-01-10T10:38:40;36.90;;;16.00;;
62863;SDS011;48954;59.950;11.014;2024-01-10T10:41:06;41.00;;;17.40;;
62863;SDS011;48954;59.950;11.014;2024-01-10T10:43:33;44.60;;;16.60;;
62863;SDS011;48954;59.950;11.014;2024-01-10T10:46:00;40.30;;;16.80;;
62863;SDS011;48954;59.950;11.014;2024-01-10T10:48:26;31.60;;;13.90;;
62863;SDS011;48954;59.950;11.014;2024-01-10T10:51:11;38.40;;;14.90;;
62863;SDS011;48954;59.950;11.014;2024-01-10T10:53:42;43.60;;;17.80;;
62863;SDS011;48954;59.950;11.014;2024-01-10T10:56:09;59.00;;;23.50;;
62863;SDS011;48954;59.950;11.014;2024-01-10T10:58:41;69.20;;;29.60;;
62863;SDS011;48954;59.950;11.014;2024-01-10T11:01:09;51.20;;;23.50;;
62863;SDS011;48954;59.950;11.014;2024-01-10T11:03:37;56.90;;;24.20;;
62863;SDS011;48954;59.950;11.014;2024-01-10T11:06:05;55.00;;;24.90;;
62863;SDS011;48954;59.950;11.014;2024-01-10T11:12:09;94.90;;;34.10;;
62863;SDS011;48954;59.950;11.014;2024-01-10T11:20:14;99.40;;;40.10;;
62863;SDS011;48954;59.950;11.014;2024-01-10T11:25:44;93.00;;;36.30;;
62863;SDS011;48954;59.950;11.014;2024-01-10T11:28:11;91.70;;;36.50;;
62863;SDS011;48954;59.950;11.014;2024-01-10T11:30:47;98.00;;;37.30;;
62863;SDS011;48954;59.950;11.014;2024-01-10T11:33:34;109.60;;;41.00;;
62863;SDS011;48954;59.950;11.014;2024-01-10T11:38:33;105.80;;;43.10;;
62863;SDS011;48954;59.950;11.014;2024-01-10T11:40:59;124.60;;;45.80;;
62863;SDS011;48954;59.950;11.014;2024-01-10T11:43:26;116.30;;;45.00;;
62863;SDS011;48954;59.950;11.014;2024-01-10T11:45:52;117.90;;;43.70;;
62863;SDS011;48954;59.950;11.014;2024-01-10T11:48:27;104.00;;;41.00;;
62863;SDS011;48954;59.950;11.014;2024-01-10T11:50:54;103.90;;;42.00;;
62863;SDS011;48954;59.950;11.014;2024-01-10T11:56:09;120.40;;;46.30;;
62863;SDS011;48954;59.950;11.014;2024-01-10T11:58:51;129.60;;;52.20;;
62863;SDS011;48954;59.950;11.014;2024-01-10T12:01:18;129.10;;;45.60;;
62863;SDS011;48954;59.950;11.014;2024-01-10T12:03:44;106.50;;;40.80;;
62863;SDS011;48954;59.950;11.014;2024-01-10T12:06:11;97.30;;;39.10;;
62863;SDS011;48954;59.950;11.014;2024-01-10T12:08:40;87.60;;;36.70;;
62863;SDS011;48954;59.950;11.014;2024-01-10T12:11:05;90.70;;;37.60;;
62863;SDS011;48954;59.950;11.014;2024-01-10T12:13:31;96.80;;;39.10;;
62863;SDS011;48954;59.950;11.014;2024-01-10T12:15:57;104.10;;;40.10;;
62863;SDS011;48954;59.950;11.014;2024-01-10T12:18:23;97.60;;;38.10;;
62863;SDS011;48954;59.950;11.014;2024-01-10T12:20:49;94.90;;;37.80;;
62863;SDS011;48954;59.950;11.014;2024-01-10T12:23:15;98.70;;;38.90;;
62863;SDS011;48954;59.950;11.014;2024-01-10T12:25:41;84.20;;;34.40;;
62863;SDS011;48954;59.950;11.014;2024-01-10T12:28:06;81.90;;;33.10;;
62863;SDS011;48954;59.950;11.014;2024-01-10T12:30:32;72.40;;;29.70;;
62863;SDS011;48954;59.950;11.014;2024-01-10T12:32:59;67.30;;;28.20;;
62863;SDS011;48954;59.950;11.014;2024-01-10T12:35:25;61.70;;;27.00;;
62863;SDS011;48954;59.950;11.014;2024-01-10T12:37:55;54.70;;;25.20;;
62863;SDS011;48954;59.950;11.014;2024-01-10T12:40:21;51.50;;;22.70;;
62863;SDS011;48954;59.950;11.014;2024-01-10T12:42:47;62.30;;;25.80;;
62863;SDS011;48954;59.950;11.014;2024-01-10T12:45:20;58.90;;;25.30;;
62863;SDS011;48954;59.950;11.014;2024-01-10T12:47:49;65.90;;;25.70;;
62863;SDS011;48954;59.950;11.014;2024-01-10T12:50:18;57.40;;;23.80;;
62863;SDS011;48954;59.950;11.014;2024-01-10T12:52:44;47.70;;;19.90;;
62863;SDS011;48954;59.950;11.014;2024-01-10T12:55:10;47.00;;;21.20;;
62863;SDS011;48954;59.950;11.014;2024-01-10T12:57:36;53.90;;;22.90;;
62863;SDS011;48954;59.950;11.014;2024-01-10T13:00:05;51.30;;;21.70;;
62863;SDS011;48954;59.950;11.014;2024-01-10T13:02:32;50.90;;;21.70;;
62863;SDS011;48954;59.950;11.014;2024-01-10T13:04:58;43.60;;;19.10;;
62863;SDS011;48954;59.950;11.014;2024-01-10T13:07:24;37.60;;;17.20;;
62863;SDS011;48954;59.950;11.014;2024-01-10T13:09:51;48.00;;;18.50;;
62863;SDS011;48954;59.950;11.014;2024-01-10T13:12:16;46.30;;;20.00;;
62863;SDS011;48954;59.950;11.014;2024-01-10T13:14:42;40.80;;;17.20;;
62863;SDS011;48954;59.950;11.014;2024-01-10T13:17:08;54.30;;;19.20;;
62863;SDS011;48954;59.950;11.014;2024-01-10T13:19:34;54.80;;;21.40;;
62863;SDS011;48954;59.950;11.014;2024-01-10T13:22:00;55.10;;;20.40;;
62863;SDS011;48954;59.950;11.014;2024-01-10T13:24:26;55.40;;;20.90;;
62863;SDS011;48954;59.950;11.014;2024-01-10T13:26:51;54.80;;;21.40;;
62863;SDS011;48954;59.950;11.014;2024-01-10T13:29:17;126.90;;;39.70;;
62863;SDS011;48954;59.950;11.014;2024-01-10T13:31:43;136.60;;;39.10;;
62863;SDS011;48954;59.950;11.014;2024-01-10T13:34:09;104.10;;;32.60;;
62863;SDS011;48954;59.950;11.014;2024-01-10T13:36:35;75.90;;;28.90;;
62863;SDS011;48954;59.950;11.014;2024-01-10T13:39:01;69.80;;;26.60;;
62863;SDS011;48954;59.950;11.014;2024-01-10T13:41:27;64.40;;;25.70;;
62863;SDS011;48954;59.950;11.014;2024-01-10T13:43:52;79.10;;;30.50;;
62863;SDS011;48954;59.950;11.014;2024-01-10T13:46:18;71.60;;;27.60;;
62863;SDS011;48954;59.950;11.014;2024-01-10T13:48:44;59.60;;;24.60;;
62863;SDS011;48954;59.950;11.014;2024-01-10T13:51:10;66.80;;;24.60;;
62863;SDS011;48954;59.950;11.014;2024-01-10T13:53:36;62.80;;;22.10;;
62863;SDS011;48954;59.950;11.014;2024-01-10T13:56:02;46.10;;;18.90;;
62863;SDS011;48954;59.950;11.014;2024-01-10T13:58:28;52.10;;;21.40;;
62863;SDS011;48954;59.950;11.014;2024-01-10T14:00:53;53.30;;;23.30;;
62863;SDS011;48954;59.950;11.014;2024-01-10T14:03:19;50.70;;;22.30;;
62863;SDS011;48954;59.950;11.014;2024-01-10T14:05:45;48.30;;;20.40;;
62863;SDS011;48954;59.950;11.014;2024-01-10T14:08:11;51.40;;;20.70;;
62863;SDS011;48954;59.950;11.014;2024-01-10T14:10:37;49.50;;;20.00;;
62863;SDS011;48954;59.950;11.014;2024-01-10T14:13:03;56.30;;;21.70;;
62863;SDS011;48954;59.950;11.014;2024-01-10T14:15:29;47.10;;;20.40;;
62863;SDS011;48954;59.950;11.014;2024-01-10T14:17:54;59.40;;;25.20;;
62863;SDS011;48954;59.950;11.014;2024-01-10T14:20:20;46.00;;;20.20;;
62863;SDS011;48954;59.950;11.014;2024-01-10T14:22:46;62.70;;;29.00;;